sensor_id;sensor_type;location;lat;lon;timestamp;P1;durP1;ratioP1;P2;durP2;ratioP2
16967;SDS011;64862;54.398;10.126;2023-12-07T00:06:21;237.25;;;80.88;;
16967;SDS011;64862;54.398;10.126;2023-12-07T00:16:25;282.60;;;86.50;;
16967;SDS011;64862;54.398;10.126;2023-12-07T00:26:27;328.27;;;89.45;;
16967;SDS011;64862;54.398;10.126;2023-12-07T00:36:31;376.80;;;91.43;;
16967;SDS011;64862;54.398;10.126;2023-12-07T00:46:34;374.42;;;91.07;;
16967;SDS011;64862;54.398;10.126;2023-12-07T00:56:38;433.20;;;84.03;;
16967;SDS011;64862;54.398;10.126;2023-12-07T01:06:40;523.42;;;84.30;;
16967;SDS011;64862;54.398;10.126;2023-12-07T01:16:45;491.50;;;81.57;;
16967;SDS011;64862;54.398;10.126;2023-12-07T01:26:49;501.00;;;77.75;;
16967;SDS011;64862;54.398;10.126;2023-12-07T01:36:55;583.75;;;82.68;;
16967;SDS011;64862;54.398;10.126;2023-12-07T01:46:56;450.23;;;75.35;;
16967;SDS011;64862;54.398;10.126;2023-12-07T01:57:00;447.63;;;72.57;;
16967;SDS011;64862;54.398;10.126;2023-12-07T02:07:04;432.58;;;74.88;;
16967;SDS011;64862;54.398;10.126;2023-12-07T02:17:11;448.20;;;75.20;;
16967;SDS011;64862;54.398;10.126;2023-12-07T02:27:21;366.48;;;73.20;;
16967;SDS011;64862;54.398;10.126;2023-12-07T02:37:36;373.40;;;76.47;;
16967;SDS011;64862;54.398;10.126;2023-12-07T02:47:44;348.33;;;77.30;;
16967;SDS011;64862;54.398;10.126;2023-12-07T02:57:48;314.25;;;80.00;;
16967;SDS011;64862;54.398;10.126;2023-12-07T03:07:54;322.73;;;81.43;;
16967;SDS011;64862;54.398;10.126;2023-12-07T03:17:56;339.40;;;81.50;;
16967;SDS011;64862;54.398;10.126;2023-12-07T03:28:01;309.88;;;81.88;;
16967;SDS011;64862;54.398;10.126;2023-12-07T03:38:04;356.25;;;83.40;;
16967;SDS011;64862;54.398;10.126;2023-12-07T03:48:08;276.25;;;81.95;;
16967;SDS011;64862;54.398;10.126;2023-12-07T03:58:10;306.35;;;81.57;;
16967;SDS011;64862;54.398;10.126;2023-12-07T04:08:15;280.40;;;80.65;;
16967;SDS011;64862;54.398;10.126;2023-12-07T04:18:17;291.20;;;84.18;;
16967;SDS011;64862;54.398;10.126;2023-12-07T04:28:22;297.75;;;81.50;;
16967;SDS011;64862;54.398;10.126;2023-12-07T04:38:24;266.85;;;81.18;;
16967;SDS011;64862;54.398;10.126;2023-12-07T04:48:28;255.85;;;81.13;;
16967;SDS011;64862;54.398;10.126;2023-12-07T04:58:30;262.38;;;82.88;;
16967;SDS011;64862;54.398;10.126;2023-12-07T05:08:33;261.40;;;83.07;;
16967;SDS011;64862;54.398;10.126;2023-12-07T05:18:35;253.45;;;80.85;;
16967;SDS011;64862;54.398;10.126;2023-12-07T05:28:39;249.85;;;78.07;;
16967;SDS011;64862;54.398;10.126;2023-12-07T05:38:41;245.30;;;78.78;;
16967;SDS011;64862;54.398;10.126;2023-12-07T05:48:45;247.77;;;78.65;;
16967;SDS011;64862;54.398;10.126;2023-12-07T05:58:47;263.35;;;83.10;;
16967;SDS011;64862;54.398;10.126;2023-12-07T06:08:51;253.13;;;80.70;;
16967;SDS011;64862;54.398;10.126;2023-12-07T06:18:53;251.27;;;79.22;;
16967;SDS011;64862;54.398;10.126;2023-12-07T06:28:56;246.20;;;77.20;;
16967;SDS011;64862;54.398;10.126;2023-12-07T06:38:58;264.17;;;77.38;;
16967;SDS011;64862;54.398;10.126;2023-12-07T06:49:02;262.80;;;77.97;;
16967;SDS011;64862;54.398;10.126;2023-12-07T06:59:04;245.98;;;76.03;;
16967;SDS011;64862;54.398;10.126;2023-12-07T07:09:07;322.10;;;75.57;;
16967;SDS011;64862;54.398;10.126;2023-12-07T07:19:09;295.55;;;75.68;;
16967;SDS011;64862;54.398;10.126;2023-12-07T07:29:13;361.10;;;74.13;;
16967;SDS011;64862;54.398;10.126;2023-12-07T07:39:15;268.77;;;71.88;;
16967;SDS011;64862;54.398;10.126;2023-12-07T07:49:18;277.00;;;71.45;;
16967;SDS011;64862;54.398;10.126;2023-12-07T07:59:20;311.88;;;69.85;;
16967;SDS011;64862;54.398;10.126;2023-12-07T08:09:24;312.17;;;73.47;;
16967;SDS011;64862;54.398;10.126;2023-12-07T08:19:26;315.45;;;69.38;;
16967;SDS011;64862;54.398;10.126;2023-12-07T08:29:29;288.63;;;68.53;;
16967;SDS011;64862;54.398;10.126;2023-12-07T08:39:31;331.27;;;69.18;;
16967;SDS011;64862;54.398;10.126;2023-12-07T08:49:35;292.58;;;68.05;;
16967;SDS011;64862;54.398;10.126;2023-12-07T08:59:37;326.77;;;67.00;;
16967;SDS011;64862;54.398;10.126;2023-12-07T09:09:41;343.65;;;67.63;;
16967;SDS011;64862;54.398;10.126;2023-12-07T09:19:47;324.10;;;62.65;;
16967;SDS011;64862;54.398;10.126;2023-12-07T09:29:50;316.95;;;60.88;;
16967;SDS011;64862;54.398;10.126;2023-12-07T09:39:52;273.95;;;63.58;;
16967;SDS011;64862;54.398;10.126;2023-12-07T09:49:55;278.25;;;64.25;;
16967;SDS011;64862;54.398;10.126;2023-12-07T09:59:58;280.15;;;65.32;;
16967;SDS011;64862;54.398;10.126;2023-12-07T10:10:02;273.90;;;63.58;;
16967;SDS011;64862;54.398;10.126;2023-12-07T10:20:07;259.10;;;64.75;;
16967;SDS011;64862;54.398;10.126;2023-12-07T10:30:12;268.33;;;64.97;;
16967;SDS011;64862;54.398;10.126;2023-12-07T10:40:14;260.83;;;63.90;;
16967;SDS011;64862;54.398;10.126;2023-12-07T10:50:20;240.15;;;60.90;;
16967;SDS011;64862;54.398;10.126;2023-12-07T11:00:24;241.80;;;57.83;;
16967;SDS011;64862;54.398;10.126;2023-12-07T11:10:30;258.85;;;60.70;;
16967;SDS011;64862;54.398;10.126;2023-12-07T11:20:41;246.27;;;56.63;;
16967;SDS011;64862;54.398;10.126;2023-12-07T11:30:45;245.63;;;58.17;;
16967;SDS011;64862;54.398;10.126;2023-12-07T11:40:49;287.83;;;62.33;;
16967;SDS011;64862;54.398;10.126;2023-12-07T11:50:57;288.65;;;61.90;;
16967;SDS011;64862;54.398;10.126;2023-12-07T12:01:00;273.98;;;62.22;;
16967;SDS011;64862;54.398;10.126;2023-12-07T12:11:05;261.70;;;57.53;;
16967;SDS011;64862;54.398;10.126;2023-12-07T12:21:07;278.20;;;59.35;;
16967;SDS011;64862;54.398;10.126;2023-12-07T12:31:11;270.77;;;60.65;;
16967;SDS011;64862;54.398;10.126;2023-12-07T12:41:17;294.20;;;62.30;;
16967;SDS011;64862;54.398;10.126;2023-12-07T12:51:22;263.02;;;63.65;;
16967;SDS011;64862;54.398;10.126;2023-12-07T13:01:26;276.23;;;61.80;;
16967;SDS011;64862;54.398;10.126;2023-12-07T13:11:30;255.27;;;58.22;;
16967;SDS011;64862;54.398;10.126;2023-12-07T13:21:33;273.02;;;60.33;;
16967;SDS011;64862;54.398;10.126;2023-12-07T13:31:37;231.15;;;55.63;;
16967;SDS011;64862;54.398;10.126;2023-12-07T13:41:39;254.13;;;57.42;;
16967;SDS011;64862;54.398;10.126;2023-12-07T13:51:43;219.32;;;54.60;;
16967;SDS011;64862;54.398;10.126;2023-12-07T14:01:46;214.63;;;54.80;;
16967;SDS011;64862;54.398;10.126;2023-12-07T14:11:50;233.18;;;55.80;;
16967;SDS011;64862;54.398;10.126;2023-12-07T14:21:53;244.25;;;58.25;;
16967;SDS011;64862;54.398;10.126;2023-12-07T14:31:57;252.85;;;57.45;;
16967;SDS011;64862;54.398;10.126;2023-12-07T14:42:00;264.83;;;58.40;;
16967;SDS011;64862;54.398;10.126;2023-12-07T14:52:04;222.80;;;54.15;;
16967;SDS011;64862;54.398;10.126;2023-12-07T15:02:06;220.60;;;54.50;;
16967;SDS011;64862;54.398;10.126;2023-12-07T15:12:12;200.55;;;53.47;;
16967;SDS011;64862;54.398;10.126;2023-12-07T15:22:15;224.32;;;55.92;;
16967;SDS011;64862;54.398;10.126;2023-12-07T15:32:20;221.55;;;56.78;;
16967;SDS011;64862;54.398;10.126;2023-12-07T15:42:24;209.13;;;55.47;;
16967;SDS011;64862;54.398;10.126;2023-12-07T15:52:28;211.95;;;51.97;;
16967;SDS011;64862;54.398;10.126;2023-12-07T16:02:30;186.95;;;49.47;;
16967;SDS011;64862;54.398;10.126;2023-12-07T17:56:05;50.57;;;22.30;;
16967;SDS011;64862;54.398;10.126;2023-12-07T18:06:09;53.72;;;24.13;;
16967;SDS011;64862;54.398;10.126;2023-12-07T18:16:15;61.65;;;24.67;;
16967;SDS011;64862;54.398;10.126;2023-12-07T18:26:18;66.80;;;23.23;;
16967;SDS011;64862;54.398;10.126;2023-12-07T18:36:22;57.70;;;20.85;;
16967;SDS011;64862;54.398;10.126;2023-12-07T18:46:24;48.45;;;19.25;;
16967;SDS011;64862;54.398;10.126;2023-12-07T18:56:28;51.30;;;20.33;;
16967;SDS011;64862;54.398;10.126;2023-12-07T19:06:30;54.25;;;21.83;;
16967;SDS011;64862;54.398;10.126;2023-12-07T19:16:35;64.53;;;23.25;;
16967;SDS011;64862;54.398;10.126;2023-12-07T19:26:38;82.18;;;22.55;;
16967;SDS011;64862;54.398;10.126;2023-12-07T19:36:43;93.50;;;20.83;;
16967;SDS011;64862;54.398;10.126;2023-12-07T19:46:45;72.43;;;21.58;;
16967;SDS011;64862;54.398;10.126;2023-12-07T19:56:48;69.00;;;24.92;;
16967;SDS011;64862;54.398;10.126;2023-12-07T20:06:51;57.95;;;21.42;;
16967;SDS011;64862;54.398;10.126;2023-12-07T20:16:55;61.72;;;23.23;;
16967;SDS011;64862;54.398;10.126;2023-12-07T20:26:57;59.00;;;21.88;;
16967;SDS011;64862;54.398;10.126;2023-12-07T20:37:02;52.35;;;20.73;;
16967;SDS011;64862;54.398;10.126;2023-12-07T20:47:05;55.42;;;21.17;;
16967;SDS011;64862;54.398;10.126;2023-12-07T20:57:10;57.28;;;21.88;;
16967;SDS011;64862;54.398;10.126;2023-12-07T21:07:12;67.78;;;23.92;;
16967;SDS011;64862;54.398;10.126;2023-12-07T21:17:17;74.75;;;23.50;;
16967;SDS011;64862;54.398;10.126;2023-12-07T21:27:18;66.38;;;23.30;;
16967;SDS011;64862;54.398;10.126;2023-12-07T21:37:23;59.20;;;23.65;;
16967;SDS011;64862;54.398;10.126;2023-12-07T21:47:25;53.35;;;21.88;;
16967;SDS011;64862;54.398;10.126;2023-12-07T21:57:29;54.42;;;22.35;;
16967;SDS011;64862;54.398;10.126;2023-12-07T22:07:32;56.63;;;22.55;;
16967;SDS011;64862;54.398;10.126;2023-12-07T22:17:35;58.42;;;23.65;;
16967;SDS011;64862;54.398;10.126;2023-12-07T22:27:37;45.42;;;18.98;;
16967;SDS011;64862;54.398;10.126;2023-12-07T22:37:40;48.65;;;21.25;;
16967;SDS011;64862;54.398;10.126;2023-12-07T22:47:42;36.80;;;16.38;;
16967;SDS011;64862;54.398;10.126;2023-12-07T22:57:47;37.20;;;15.80;;
16967;SDS011;64862;54.398;10.126;2023-12-07T23:07:49;35.92;;;15.73;;
16967;SDS011;64862;54.398;10.126;2023-12-07T23:17:53;39.60;;;14.75;;
16967;SDS011;64862;54.398;10.126;2023-12-07T23:27:55;33.08;;;15.10;;
16967;SDS011;64862;54.398;10.126;2023-12-07T23:37:59;35.08;;;15.18;;
16967;SDS011;64862;54.398;10.126;2023-12-07T23:48:01;32.28;;;15.32;;
16967;SDS011;64862;54.398;10.126;2023-12-07T23:58:06;32.80;;;14.93;;
